createdAt,value
2022-10-28T00:01:42.638Z,15.90
2022-10-28T00:05:44.759Z,15.90
2022-10-28T00:09:45.859Z,15.90
2022-10-28T00:13:47.483Z,16.00
2022-10-28T00:17:48.654Z,16.00
2022-10-28T00:21:49.838Z,15.90
2022-10-28T00:25:51.018Z,15.90
2022-10-28T00:29:52.249Z,16.00
2022-10-28T00:33:54.048Z,16.00
2022-10-28T00:37:55.239Z,16.00
2022-10-28T00:42:01.171Z,15.90
2022-10-28T00:46:03.766Z,16.00
2022-10-28T00:50:28.611Z,15.90
2022-10-28T00:54:30.907Z,16.00
2022-10-28T00:58:32.298Z,15.90
2022-10-28T01:02:37.346Z,16.10
2022-10-28T01:06:38.808Z,15.90
2022-10-28T01:11:00.183Z,16.00
2022-10-28T01:15:08.355Z,16.10
2022-10-28T01:19:31.977Z,16.00
2022-10-28T01:23:55.997Z,16.00
2022-10-28T01:28:18.797Z,16.00
2022-10-28T01:32:30.253Z,16.00
2022-10-28T01:36:35.801Z,16.00
2022-10-28T01:40:59.496Z,16.10
2022-10-28T01:45:10.561Z,16.10
2022-10-28T01:49:34.376Z,16.10
2022-10-28T01:53:40.962Z,16.10
2022-10-28T01:57:43.416Z,16.10
2022-10-28T02:01:45.585Z,16.20
2022-10-28T02:05:53.723Z,16.20
2022-10-28T02:09:58.792Z,16.20
2022-10-28T02:14:12.455Z,16.40
2022-10-28T02:18:40.442Z,16.40
2022-10-28T02:22:48.719Z,16.30
2022-10-28T02:26:53.711Z,16.30
2022-10-28T02:31:01.719Z,16.40
2022-10-28T02:35:05.286Z,16.30
2022-10-28T02:39:07.295Z,16.40
2022-10-28T02:43:11.767Z,16.40
2022-10-28T02:47:17.558Z,16.40
2022-10-28T02:51:26.010Z,16.40
2022-10-28T02:55:30.904Z,16.50
2022-10-28T02:59:32.283Z,16.40
2022-10-28T03:03:33.580Z,16.60
2022-10-28T03:07:34.759Z,16.60
2022-10-28T03:11:35.967Z,16.60
2022-10-28T03:15:37.170Z,16.40
2022-10-28T03:19:38.373Z,16.10
2022-10-28T03:23:39.462Z,16.00
2022-10-28T03:27:40.860Z,16.10
2022-10-28T03:31:42.352Z,16.10
2022-10-28T03:35:43.958Z,16.30
2022-10-28T03:39:45.149Z,16.40
2022-10-28T03:43:46.327Z,16.40
2022-10-28T03:47:47.507Z,16.40
2022-10-28T03:51:49.098Z,16.50
2022-10-28T03:55:54.399Z,16.50
2022-10-28T03:59:55.684Z,16.50
2022-10-28T04:03:56.816Z,16.30
2022-10-28T04:07:58.051Z,16.30
2022-10-28T04:11:59.272Z,16.30
2022-10-28T04:16:01.459Z,16.10
2022-10-28T04:20:03.569Z,16.40
2022-10-28T04:24:05.511Z,16.50
2022-10-28T04:28:06.798Z,16.50
2022-10-28T04:32:08.388Z,16.60
2022-10-28T04:36:09.589Z,16.70
2022-10-28T04:40:11.379Z,16.70
2022-10-28T04:44:12.665Z,16.70
2022-10-28T04:48:13.859Z,16.70
2022-10-28T04:52:15.899Z,16.60
2022-10-28T04:56:17.371Z,16.70
2022-10-28T05:00:18.858Z,16.70
2022-10-28T05:04:20.036Z,16.50
2022-10-28T05:08:21.226Z,16.40
2022-10-28T05:12:22.307Z,16.30
2022-10-28T05:16:23.421Z,16.50
2022-10-28T05:20:24.617Z,16.60
2022-10-28T05:24:25.792Z,16.60
2022-10-28T05:28:26.976Z,16.70
2022-10-28T05:32:28.069Z,16.70
2022-10-28T05:36:29.244Z,16.50
2022-10-28T05:40:32.036Z,16.50
2022-10-28T05:44:33.217Z,16.50
2022-10-28T05:48:34.400Z,16.50
2022-10-28T05:52:35.614Z,16.40
2022-10-28T05:56:36.804Z,16.30
2022-10-28T06:00:38.098Z,16.40
2022-10-28T06:04:39.298Z,16.40
2022-10-28T06:08:40.470Z,16.50
2022-10-28T06:12:40.027Z,16.50
2022-10-28T06:16:41.590Z,16.50
2022-10-28T06:20:42.882Z,16.40
2022-10-28T06:24:44.134Z,16.40
2022-10-28T06:28:46.445Z,16.40
2022-10-28T06:32:47.630Z,16.40
2022-10-28T06:36:48.919Z,16.40
2022-10-28T06:40:52.402Z,16.40
2022-10-28T06:44:53.084Z,16.50
2022-10-28T06:48:56.273Z,16.60
2022-10-28T06:52:58.065Z,16.60
2022-10-28T06:56:59.259Z,16.70
2022-10-28T07:01:05.452Z,16.80
2022-10-28T07:05:07.423Z,16.90
2022-10-28T07:09:12.255Z,17.10
2022-10-28T07:13:13.409Z,17.20
2022-10-28T07:17:14.589Z,17.20
2022-10-28T07:21:17.558Z,17.20
2022-10-28T07:25:18.742Z,17.20
2022-10-28T07:29:19.934Z,17.30
2022-10-28T07:33:21.099Z,17.40
2022-10-28T07:37:22.174Z,17.40
2022-10-28T07:41:24.165Z,17.40
2022-10-28T07:45:25.365Z,17.60
2022-10-28T07:49:26.551Z,17.70
2022-10-28T07:53:28.902Z,17.80
2022-10-28T07:57:30.426Z,17.80
2022-10-28T08:01:31.584Z,17.90
2022-10-28T08:05:32.883Z,18.00
2022-10-28T08:09:34.061Z,18.10
2022-10-28T08:13:39.305Z,18.20
2022-10-28T08:17:38.302Z,18.20
2022-10-28T08:21:39.536Z,18.30
2022-10-28T08:25:49.595Z,18.50
2022-10-28T08:29:52.565Z,18.60
2022-10-28T08:33:53.669Z,18.80
2022-10-28T08:37:55.195Z,19.10
2022-10-28T08:42:17.130Z,19.40
2022-10-28T08:46:27.642Z,19.50
2022-10-28T08:50:31.225Z,19.60
2022-10-28T08:54:39.353Z,19.80
2022-10-28T08:58:43.437Z,19.90
2022-10-28T09:02:48.419Z,20.00
2022-10-28T09:06:49.500Z,20.00
2022-10-28T09:11:15.678Z,20.20
2022-10-28T09:15:29.857Z,20.40
2022-10-28T09:19:41.091Z,20.50
2022-10-28T09:23:52.087Z,20.30
2022-10-28T09:28:00.059Z,20.30
2022-10-28T09:32:23.181Z,20.30
2022-10-28T09:36:34.080Z,20.50
2022-10-28T09:40:37.906Z,20.30
2022-10-28T09:44:42.701Z,20.90
2022-10-28T09:48:50.584Z,21.60
2022-10-28T09:53:24.888Z,21.30
2022-10-28T09:57:29.882Z,21.40
2022-10-28T10:01:37.176Z,21.50
2022-10-28T10:05:42.249Z,21.80
2022-10-28T10:09:44.020Z,22.20
2022-10-28T10:13:45.314Z,22.80
2022-10-28T10:17:47.112Z,23.50
2022-10-28T10:21:53.548Z,23.90
2022-10-28T10:25:58.242Z,24.30
2022-10-28T10:29:59.716Z,24.60
2022-10-28T10:34:01.339Z,24.80
2022-10-28T10:38:05.128Z,24.70
2022-10-28T10:42:16.825Z,24.60
2022-10-28T10:46:17.896Z,24.70
2022-10-28T10:50:22.810Z,24.80
2022-10-28T10:54:31.120Z,25.00
2022-10-28T10:58:36.010Z,24.80
2022-10-28T11:02:38.795Z,25.10
2022-10-28T11:06:42.897Z,24.50
2022-10-28T11:10:44.094Z,24.50
2022-10-28T11:15:00.019Z,24.60
2022-10-28T11:19:05.026Z,24.90
2022-10-28T11:23:26.767Z,25.20
2022-10-28T11:27:51.739Z,25.40
2022-10-28T11:32:10.086Z,25.40
2022-10-28T11:36:24.336Z,25.30
2022-10-28T11:40:47.162Z,25.10
2022-10-28T11:44:58.189Z,25.10
2022-10-28T11:49:32.016Z,25.50
2022-10-28T11:53:45.616Z,25.70
2022-10-28T11:58:05.632Z,25.70
2022-10-28T12:02:43.267Z,25.70
2022-10-28T12:06:51.337Z,25.90
2022-10-28T12:11:05.045Z,26.20
2022-10-28T12:15:34.304Z,26.30
2022-10-28T12:19:47.921Z,26.10
2022-10-28T12:23:50.120Z,26.00
2022-10-28T12:27:54.900Z,26.20
2022-10-28T12:32:12.069Z,25.80
2022-10-28T12:36:32.585Z,25.90
2022-10-28T12:40:40.655Z,25.70
2022-10-28T12:44:42.832Z,25.60
2022-10-28T12:48:50.260Z,25.90
2022-10-28T12:53:03.661Z,25.70
2022-10-28T12:57:13.441Z,25.80
2022-10-28T13:01:17.539Z,25.40
2022-10-28T13:05:22.581Z,25.40
2022-10-28T13:09:51.937Z,25.20
2022-10-28T13:14:16.905Z,25.30
2022-10-28T13:18:42.970Z,25.10
2022-10-28T13:23:07.899Z,25.10
2022-10-28T13:27:12.478Z,25.20
2022-10-28T13:31:14.814Z,25.30
2022-10-28T13:35:25.604Z,25.20
2022-10-28T13:39:44.438Z,25.10
2022-10-28T13:43:53.756Z,25.00
2022-10-28T13:48:15.041Z,25.00
2022-10-28T13:52:20.595Z,25.20
2022-10-28T13:56:28.614Z,25.10
2022-10-28T14:00:33.617Z,25.30
2022-10-28T14:04:37.416Z,25.10
2022-10-28T14:08:40.630Z,24.90
2022-10-28T14:12:45.615Z,24.50
2022-10-28T14:16:46.826Z,24.50
2022-10-28T14:20:51.823Z,24.50
2022-10-28T14:24:53.003Z,24.40
2022-10-28T14:28:54.803Z,24.50
2022-10-28T14:33:00.784Z,24.50
2022-10-28T14:37:08.926Z,24.50
2022-10-28T14:41:36.757Z,24.60
2022-10-28T14:46:01.480Z,24.10
2022-10-28T14:50:21.265Z,24.00
2022-10-28T14:54:46.281Z,23.90
2022-10-28T14:58:48.028Z,23.90
2022-10-28T15:02:50.034Z,23.70
2022-10-28T15:06:51.916Z,23.70
2022-10-28T15:10:53.309Z,23.60
2022-10-28T15:14:57.214Z,23.50
2022-10-28T15:18:58.372Z,23.40
2022-10-28T15:23:15.357Z,23.40
2022-10-28T15:27:17.051Z,23.50
2022-10-28T15:31:18.393Z,23.40
2022-10-28T15:35:32.620Z,23.30
2022-10-28T15:39:34.858Z,23.30
2022-10-28T15:43:36.875Z,23.20
2022-10-28T15:47:38.159Z,23.20
2022-10-28T15:51:39.323Z,22.90
2022-10-28T15:56:06.599Z,23.10
2022-10-28T15:59:47.932Z,22.90
2022-10-28T16:03:49.242Z,23.00
2022-10-28T16:07:50.431Z,22.80
2022-10-28T16:11:58.001Z,22.70
2022-10-28T16:16:03.008Z,22.60
2022-10-28T16:20:18.828Z,22.30
2022-10-28T16:24:20.248Z,22.30
2022-10-28T16:28:26.357Z,22.20
2022-10-28T16:32:32.743Z,22.30
2022-10-28T16:36:33.780Z,22.30
2022-10-28T16:40:51.105Z,22.30
2022-10-28T16:44:38.021Z,22.10
2022-10-28T16:48:40.073Z,22.10
2022-10-28T16:52:41.281Z,21.80
2022-10-28T16:56:42.458Z,21.70
2022-10-28T17:00:44.015Z,21.40
2022-10-28T17:04:45.197Z,21.50
2022-10-28T17:09:03.231Z,21.40
2022-10-28T17:12:49.574Z,21.30
2022-10-28T17:16:50.758Z,21.20
2022-10-28T17:21:01.126Z,21.30
2022-10-28T17:25:02.558Z,21.20
2022-10-28T17:29:03.746Z,21.20
2022-10-28T17:33:04.824Z,21.30
2022-10-28T17:37:07.011Z,21.30
2022-10-28T17:41:08.196Z,21.30
2022-10-28T17:45:10.713Z,21.20
2022-10-28T17:49:11.996Z,21.30
2022-10-28T17:53:13.987Z,21.50
2022-10-28T17:57:15.180Z,21.30
2022-10-28T18:01:16.354Z,21.30
2022-10-28T18:05:17.584Z,21.40
2022-10-28T18:09:19.135Z,21.30
2022-10-28T18:13:22.806Z,21.20
2022-10-28T18:17:24.002Z,21.20
2022-10-28T18:21:25.316Z,21.10
2022-10-28T18:25:26.406Z,21.20
2022-10-28T18:29:27.483Z,21.20
2022-10-28T18:33:32.876Z,21.20
2022-10-28T18:37:34.052Z,21.20
2022-10-28T18:41:38.961Z,21.20
2022-10-28T18:45:40.139Z,21.20
2022-10-28T18:49:41.225Z,21.30
2022-10-28T18:53:45.637Z,21.20
2022-10-28T18:57:51.802Z,21.20
2022-10-28T19:01:53.036Z,21.20
2022-10-28T19:06:03.582Z,21.30
2022-10-28T19:10:05.480Z,21.30
2022-10-28T19:14:07.760Z,21.40
2022-10-28T19:18:08.934Z,21.40
2022-10-28T19:22:11.229Z,21.40
2022-10-28T19:26:13.099Z,21.40
2022-10-28T19:30:14.225Z,21.40
2022-10-28T19:34:15.425Z,21.40
2022-10-28T19:38:16.606Z,21.40
2022-10-28T19:42:17.728Z,21.30
2022-10-28T19:46:20.364Z,21.40
2022-10-28T19:50:21.484Z,21.50
2022-10-28T19:54:22.580Z,21.30
2022-10-28T19:58:23.961Z,21.50
2022-10-28T20:02:25.305Z,21.50
2022-10-28T20:06:32.984Z,21.30
2022-10-28T20:10:34.166Z,21.40
2022-10-28T20:14:35.433Z,21.40
2022-10-28T20:18:37.460Z,21.40
2022-10-28T20:22:42.174Z,21.40
2022-10-28T20:26:41.643Z,21.30
2022-10-28T20:30:42.807Z,21.30
2022-10-28T20:34:44.009Z,21.20
2022-10-28T20:38:45.193Z,21.20
2022-10-28T20:42:46.278Z,21.20
2022-10-28T20:46:47.356Z,21.30
2022-10-28T20:50:53.743Z,21.00
2022-10-28T20:54:54.917Z,20.80
2022-10-28T20:58:57.251Z,20.80
2022-10-28T21:02:58.780Z,20.80
2022-10-28T21:07:00.454Z,20.60
2022-10-28T21:11:03.270Z,20.30
2022-10-28T21:15:05.509Z,20.20
2022-10-28T21:19:06.729Z,20.10
2022-10-28T21:23:07.903Z,20.00
2022-10-28T21:27:09.105Z,19.70
2022-10-28T21:31:12.394Z,19.40
2022-10-28T21:35:13.698Z,19.60
2022-10-28T21:39:14.890Z,19.80
2022-10-28T21:43:15.956Z,19.50
2022-10-28T21:47:17.127Z,19.10
2022-10-28T21:51:18.352Z,19.10
2022-10-28T21:55:33.832Z,19.00
2022-10-28T21:59:22.719Z,19.10
2022-10-28T22:03:23.816Z,19.40
2022-10-28T22:07:24.910Z,19.50
2022-10-28T22:11:26.392Z,19.50
2022-10-28T22:15:27.575Z,19.40
2022-10-28T22:19:28.761Z,19.50
2022-10-28T22:23:30.761Z,19.50
2022-10-28T22:27:32.033Z,19.60
2022-10-28T22:31:33.522Z,19.60
2022-10-28T22:35:34.718Z,19.50
2022-10-28T22:39:35.912Z,19.40
2022-10-28T22:43:38.034Z,19.50
2022-10-28T22:47:39.228Z,19.50
2022-10-28T22:51:40.331Z,19.40
2022-10-28T22:55:41.619Z,19.10
2022-10-28T22:59:42.811Z,19.10
2022-10-28T23:03:46.304Z,19.40
2022-10-28T23:07:47.464Z,19.40
2022-10-28T23:11:48.754Z,19.30
2022-10-28T23:15:49.920Z,19.20
2022-10-28T23:19:51.031Z,19.00
2022-10-28T23:23:57.242Z,18.90
2022-10-28T23:27:58.930Z,18.70
2022-10-28T23:32:00.324Z,18.70
2022-10-28T23:36:05.957Z,18.60
2022-10-28T23:44:10.555Z,18.30
2022-10-28T23:48:11.633Z,18.20
2022-10-28T23:52:12.722Z,18.20
2022-10-28T23:56:13.900Z,18.10
